createdAt,value
2022-09-11T00:00:02.823Z,13.78
2022-09-11T00:01:29.604Z,14.83
2022-09-11T00:02:31.283Z,14.22
2022-09-11T00:03:34.501Z,14.76
2022-09-11T00:04:36.501Z,15.39
2022-09-11T00:05:40.474Z,16.47
2022-09-11T00:06:43.208Z,16.36
2022-09-11T00:07:44.828Z,15.87
2022-09-11T00:08:49.342Z,16.61
2022-09-11T00:09:50.956Z,16.71
2022-09-11T00:10:53.135Z,16.87
2022-09-11T00:11:54.980Z,17.33
2022-09-11T00:12:56.635Z,16.05
2022-09-11T00:13:58.947Z,16.41
2022-09-11T00:15:00.770Z,17.14
2022-09-11T00:16:07.241Z,16.60
2022-09-11T00:17:09.075Z,15.53
2022-09-11T00:18:15.026Z,15.44
2022-09-11T00:19:20.025Z,15.78
2022-09-11T00:20:23.260Z,15.97
2022-09-11T00:21:26.449Z,15.85
2022-09-11T00:22:28.274Z,15.79
2022-09-11T00:23:30.072Z,15.42
2022-09-11T00:24:32.217Z,14.67
2022-09-11T00:25:35.377Z,15.94
2022-09-11T00:26:38.515Z,15.18
2022-09-11T00:27:40.290Z,15.73
2022-09-11T00:28:41.981Z,16.18
2022-09-11T00:29:43.714Z,17.00
2022-09-11T00:30:47.051Z,17.12
2022-09-11T00:31:49.176Z,15.93
2022-09-11T00:32:50.977Z,15.35
2022-09-11T00:33:52.637Z,15.74
2022-09-11T00:34:54.367Z,15.18
2022-09-11T00:36:01.593Z,15.49
2022-09-11T00:37:03.566Z,14.34
2022-09-11T00:38:05.748Z,15.27
2022-09-11T00:39:07.970Z,14.37
2022-09-11T00:40:10.180Z,15.16
2022-09-11T00:41:18.919Z,16.26
2022-09-11T00:42:20.722Z,14.70
2022-09-11T00:43:22.746Z,15.11
2022-09-11T00:44:24.653Z,14.76
2022-09-11T00:45:28.346Z,14.69
2022-09-11T00:46:51.602Z,14.65
2022-09-11T00:47:59.466Z,14.34
2022-09-11T00:49:05.966Z,14.02
2022-09-11T00:50:19.472Z,14.25
2022-09-11T00:51:28.408Z,14.52
2022-09-11T00:52:36.744Z,14.39
2022-09-11T00:53:38.757Z,14.33
2022-09-11T00:54:49.645Z,13.53
2022-09-11T00:56:00.253Z,14.25
2022-09-11T00:57:07.466Z,13.45
2022-09-11T00:58:17.464Z,12.98
2022-09-11T00:59:27.957Z,12.73
2022-09-11T01:00:30.097Z,13.15
2022-09-11T01:01:32.299Z,13.47
2022-09-11T01:02:38.486Z,13.03
2022-09-11T01:03:40.776Z,13.10
2022-09-11T01:04:42.428Z,13.42
2022-09-11T01:05:44.596Z,12.64
2022-09-11T01:06:46.863Z,13.06
2022-09-11T01:07:54.388Z,14.35
2022-09-11T01:08:56.029Z,12.69
2022-09-11T01:09:59.852Z,12.37
2022-09-11T01:11:31.906Z,12.76
2022-09-11T01:12:51.589Z,12.20
2022-09-11T01:14:12.262Z,13.44
2022-09-11T01:15:36.206Z,12.76
2022-09-11T01:17:06.502Z,12.66
2022-09-11T01:18:17.066Z,12.86
2022-09-11T01:19:43.636Z,12.44
2022-09-11T01:21:03.302Z,12.59
2022-09-11T01:22:30.180Z,11.35
2022-09-11T01:23:48.110Z,11.88
2022-09-11T01:25:05.455Z,11.58
2022-09-11T01:26:37.442Z,10.60
2022-09-11T01:27:50.698Z,11.06
2022-09-11T01:29:19.336Z,11.51
2022-09-11T01:30:24.714Z,11.01
2022-09-11T01:31:41.057Z,10.84
2022-09-11T01:33:15.892Z,11.50
2022-09-11T01:34:45.701Z,10.53
2022-09-11T01:36:04.042Z,10.36
2022-09-11T01:37:44.766Z,10.76
2022-09-11T01:39:02.565Z,11.21
2022-09-11T01:40:16.511Z,11.25
2022-09-11T01:41:41.484Z,11.04
2022-09-11T01:42:49.763Z,11.25
2022-09-11T01:44:13.923Z,11.79
2022-09-11T01:45:17.151Z,10.05
2022-09-11T01:46:24.829Z,10.42
2022-09-11T01:47:33.206Z,11.67
2022-09-11T01:48:44.725Z,10.70
2022-09-11T01:49:58.816Z,11.59
2022-09-11T01:51:04.470Z,10.65
2022-09-11T01:52:16.508Z,10.15
2022-09-11T01:53:25.754Z,10.63
2022-09-11T01:54:35.266Z,12.30
2022-09-11T01:55:43.262Z,10.67
2022-09-11T01:56:57.346Z,9.82
2022-09-11T01:58:07.083Z,9.30
2022-09-11T01:59:16.116Z,9.26
2022-09-11T02:00:18.613Z,8.12
2022-09-11T02:01:35.308Z,8.28
2022-09-11T02:03:03.938Z,8.78
2022-09-11T02:04:10.965Z,8.60
2022-09-11T02:05:24.022Z,8.14
2022-09-11T02:06:36.616Z,8.49
2022-09-11T02:07:45.699Z,8.70
2022-09-11T02:08:56.749Z,8.52
2022-09-11T02:10:10.138Z,8.28
2022-09-11T02:11:16.390Z,8.36
2022-09-11T02:12:24.227Z,7.81
2022-09-11T02:13:41.090Z,8.19
2022-09-11T02:14:50.900Z,7.68
2022-09-11T02:16:16.712Z,7.41
2022-09-11T02:17:31.562Z,6.98
2022-09-11T02:18:45.404Z,6.71
2022-09-11T02:19:47.857Z,6.58
2022-09-11T02:20:51.807Z,6.68
2022-09-11T02:21:53.431Z,6.57
2022-09-11T02:22:55.499Z,6.96
2022-09-11T02:24:00.374Z,6.60
2022-09-11T02:25:03.101Z,6.06
2022-09-11T02:26:07.846Z,6.39
2022-09-11T02:27:16.879Z,6.03
2022-09-11T02:28:18.551Z,5.97
2022-09-11T02:29:21.210Z,5.55
2022-09-11T02:30:22.843Z,5.51
2022-09-11T02:31:25.784Z,5.58
2022-09-11T02:32:33.906Z,5.52
2022-09-11T02:33:37.540Z,5.82
2022-09-11T02:34:42.014Z,6.03
2022-09-11T02:35:52.132Z,6.27
2022-09-11T02:37:11.040Z,6.12
2022-09-11T02:38:32.885Z,6.39
2022-09-11T02:39:41.718Z,6.17
2022-09-11T02:41:01.413Z,6.86
2022-09-11T02:42:28.847Z,6.95
2022-09-11T02:43:39.716Z,6.98
2022-09-11T02:44:56.255Z,6.45
2022-09-11T02:46:18.581Z,6.33
2022-09-11T02:47:40.601Z,5.83
2022-09-11T02:49:00.449Z,6.71
2022-09-11T02:50:07.987Z,6.22
2022-09-11T02:51:29.714Z,6.22
2022-09-11T02:52:53.614Z,6.28
2022-09-11T02:53:58.196Z,6.25
2022-09-11T02:55:24.151Z,6.33
2022-09-11T02:56:37.328Z,5.35
2022-09-11T02:58:05.851Z,6.36
2022-09-11T02:59:22.578Z,5.65
2022-09-11T03:00:24.650Z,6.62
2022-09-11T03:01:26.358Z,6.97
2022-09-11T03:02:31.180Z,6.77
2022-09-11T03:03:40.866Z,6.74
2022-09-11T03:04:42.678Z,6.59
2022-09-11T03:05:44.382Z,6.76
2022-09-11T03:06:48.481Z,7.32
2022-09-11T03:07:50.537Z,7.50
2022-09-11T03:08:52.334Z,7.43
2022-09-11T03:09:54.591Z,7.26
2022-09-11T03:10:57.045Z,7.34
2022-09-11T03:11:59.335Z,7.39
2022-09-11T03:13:01.032Z,6.78
2022-09-11T03:14:05.681Z,7.73
2022-09-11T03:15:10.362Z,6.96
2022-09-11T03:16:12.591Z,7.03
2022-09-11T03:17:14.321Z,7.04
2022-09-11T03:18:16.217Z,7.24
2022-09-11T03:19:17.915Z,7.58
2022-09-11T03:20:20.182Z,7.17
2022-09-11T03:21:21.876Z,7.38
2022-09-11T03:22:24.334Z,7.18
2022-09-11T03:23:27.618Z,7.76
2022-09-11T03:24:29.689Z,7.04
2022-09-11T03:25:31.580Z,7.42
2022-09-11T03:26:33.801Z,6.67
2022-09-11T03:27:35.423Z,6.81
2022-09-11T03:28:37.126Z,6.71
2022-09-11T03:29:41.756Z,6.54
2022-09-11T03:30:43.393Z,6.88
2022-09-11T03:31:45.133Z,7.40
2022-09-11T03:32:48.072Z,6.71
2022-09-11T03:33:49.740Z,7.24
2022-09-11T03:34:51.482Z,7.09
2022-09-11T03:35:54.006Z,8.29
2022-09-11T03:36:55.672Z,8.31
2022-09-11T03:37:57.670Z,8.12
2022-09-11T03:38:59.310Z,8.05
2022-09-11T03:40:01.655Z,8.10
2022-09-11T03:41:04.042Z,7.67
2022-09-11T03:42:06.484Z,7.98
2022-09-11T03:43:09.467Z,7.38
2022-09-11T03:44:12.908Z,7.42
2022-09-11T03:45:14.925Z,8.45
2022-09-11T03:46:17.690Z,8.49
2022-09-11T03:47:22.089Z,8.62
2022-09-11T03:48:25.202Z,8.31
2022-09-11T03:49:26.960Z,8.86
2022-09-11T03:50:29.562Z,9.53
2022-09-11T03:51:32.061Z,8.84
2022-09-11T03:52:34.697Z,9.63
2022-09-11T03:53:37.573Z,9.52
2022-09-11T03:54:39.832Z,9.39
2022-09-11T03:55:41.621Z,10.04
2022-09-11T03:56:43.397Z,8.90
2022-09-11T03:57:45.079Z,8.81
2022-09-11T03:58:46.854Z,9.47
2022-09-11T03:59:49.517Z,10.20
2022-09-11T04:00:52.372Z,9.31
2022-09-11T04:01:54.047Z,9.14
2022-09-11T04:02:56.027Z,9.30
2022-09-11T04:04:07.646Z,8.93
2022-09-11T04:05:12.965Z,9.76
2022-09-11T04:06:15.179Z,9.37
2022-09-11T04:07:17.757Z,9.56
2022-09-11T04:08:19.450Z,8.87
2022-09-11T04:09:21.233Z,8.77
2022-09-11T04:10:24.488Z,8.94
2022-09-11T04:11:26.265Z,10.20
2022-09-11T04:12:29.564Z,10.37
2022-09-11T04:13:34.269Z,10.00
2022-09-11T04:14:37.174Z,9.25
2022-09-11T04:15:40.287Z,9.37
2022-09-11T04:16:42.498Z,9.29
2022-09-11T04:17:44.156Z,9.39
2022-09-11T04:18:47.162Z,9.65
2022-09-11T04:19:49.433Z,9.17
2022-09-11T04:20:51.102Z,9.92
2022-09-11T04:21:54.406Z,9.72
2022-09-11T04:22:56.273Z,9.10
2022-09-11T04:24:00.310Z,8.98
2022-09-11T04:25:02.576Z,9.41
2022-09-11T04:26:15.799Z,9.03
2022-09-11T04:27:18.381Z,8.55
2022-09-11T04:28:22.479Z,8.73
2022-09-11T04:29:24.199Z,8.70
2022-09-11T04:30:25.945Z,7.59
2022-09-11T04:31:28.059Z,8.76
2022-09-11T04:32:29.813Z,8.12
2022-09-11T04:33:31.469Z,9.38
2022-09-11T04:34:33.117Z,9.46
2022-09-11T04:35:40.346Z,8.89
2022-09-11T04:36:42.039Z,8.14
2022-09-11T04:37:46.710Z,9.02
2022-09-11T04:38:55.141Z,9.34
2022-09-11T04:39:56.830Z,9.26
2022-09-11T04:41:00.911Z,8.71
2022-09-11T04:42:04.326Z,8.84
2022-09-11T04:43:06.562Z,10.04
2022-09-11T04:44:08.493Z,9.70
2022-09-11T04:45:16.195Z,9.84
2022-09-11T04:46:18.268Z,10.37
2022-09-11T04:47:20.802Z,10.10
2022-09-11T04:48:22.444Z,9.10
2022-09-11T04:49:24.311Z,9.45
2022-09-11T04:50:26.423Z,11.44
2022-09-11T04:51:45.201Z,10.82
2022-09-11T04:52:48.622Z,10.14
2022-09-11T04:53:52.118Z,10.09
2022-09-11T04:54:54.163Z,9.87
2022-09-11T04:56:03.535Z,9.84
2022-09-11T04:57:05.889Z,10.11
2022-09-11T04:58:10.068Z,9.63
2022-09-11T04:59:15.939Z,8.72
2022-09-11T05:00:21.122Z,9.46
2022-09-11T05:01:24.971Z,10.07
2022-09-11T05:02:28.439Z,9.84
2022-09-11T05:03:30.162Z,9.68
2022-09-11T05:04:32.669Z,9.97
2022-09-11T05:05:35.507Z,9.68
2022-09-11T05:06:38.049Z,8.83
2022-09-11T05:07:42.593Z,9.62
2022-09-11T05:08:46.671Z,8.50
2022-09-11T05:09:50.211Z,9.23
2022-09-11T05:10:53.144Z,8.99
2022-09-11T05:11:56.977Z,9.91
2022-09-11T05:12:59.558Z,10.26
2022-09-11T05:14:01.749Z,8.98
2022-09-11T05:15:05.298Z,9.32
2022-09-11T05:16:17.864Z,9.73
2022-09-11T05:17:19.607Z,9.19
2022-09-11T05:18:22.078Z,9.52
2022-09-11T05:19:26.161Z,9.60
2022-09-11T05:20:28.031Z,10.28
2022-09-11T05:21:31.884Z,9.48
2022-09-11T05:22:33.553Z,8.86
2022-09-11T05:23:36.546Z,8.70
2022-09-11T05:24:39.395Z,9.65
2022-09-11T05:25:41.117Z,10.00
2022-09-11T05:26:43.353Z,10.15
2022-09-11T05:27:45.546Z,9.65
2022-09-11T05:28:47.443Z,10.11
2022-09-11T05:29:49.062Z,10.53
2022-09-11T05:30:51.032Z,10.11
2022-09-11T05:31:53.236Z,10.53
2022-09-11T05:32:56.910Z,10.88
2022-09-11T05:34:00.603Z,9.94
2022-09-11T05:35:02.329Z,10.06
2022-09-11T05:36:05.549Z,10.69
2022-09-11T05:37:07.621Z,10.69
2022-09-11T05:38:14.089Z,9.85
2022-09-11T05:39:15.695Z,9.57
2022-09-11T05:40:17.605Z,9.06
2022-09-11T05:41:21.077Z,9.96
2022-09-11T05:42:23.016Z,10.45
2022-09-11T05:43:27.331Z,9.84
2022-09-11T05:44:30.981Z,9.65
2022-09-11T05:45:32.800Z,9.64
2022-09-11T05:46:34.538Z,9.15
2022-09-11T05:47:37.429Z,9.43
2022-09-11T05:48:39.743Z,11.15
2022-09-11T05:49:41.393Z,10.48
2022-09-11T05:50:43.374Z,9.16
2022-09-11T05:51:45.178Z,9.67
2022-09-11T05:52:47.037Z,10.33
2022-09-11T05:53:52.806Z,9.72
2022-09-11T05:54:54.513Z,9.88
2022-09-11T05:55:56.322Z,9.85
2022-09-11T05:56:58.194Z,9.34
2022-09-11T05:58:00.533Z,9.29
2022-09-11T05:59:02.923Z,9.89
2022-09-11T06:00:09.742Z,9.79
2022-09-11T06:01:29.291Z,10.32
2022-09-11T06:02:39.310Z,10.32
2022-09-11T06:03:41.107Z,10.77
2022-09-11T06:04:44.230Z,9.37
2022-09-11T06:05:46.627Z,9.87
2022-09-11T06:06:48.733Z,10.71
2022-09-11T06:07:51.390Z,10.12
2022-09-11T06:08:53.683Z,10.01
2022-09-11T06:09:58.665Z,9.65
2022-09-11T06:11:07.535Z,9.67
2022-09-11T06:12:12.248Z,9.74
2022-09-11T06:13:17.946Z,9.59
2022-09-11T06:14:21.489Z,9.56
2022-09-11T06:15:45.653Z,9.83
2022-09-11T06:16:48.252Z,9.41
2022-09-11T06:17:50.410Z,9.33
2022-09-11T06:18:54.271Z,9.55
2022-09-11T06:19:56.165Z,9.55
2022-09-11T06:21:09.886Z,8.58
2022-09-11T06:22:16.876Z,9.16
2022-09-11T06:23:19.951Z,8.54
2022-09-11T06:24:21.942Z,8.86
2022-09-11T06:25:25.271Z,9.76
2022-09-11T06:26:27.466Z,9.13
2022-09-11T06:27:29.135Z,8.89
2022-09-11T06:28:30.834Z,9.09
2022-09-11T06:29:33.033Z,9.39
2022-09-11T06:30:35.425Z,8.86
2022-09-11T06:31:37.321Z,9.11
2022-09-11T06:32:40.082Z,9.28
2022-09-11T06:33:42.839Z,8.82
2022-09-11T06:34:44.532Z,8.57
2022-09-11T06:36:01.465Z,9.09
2022-09-11T06:37:03.777Z,8.65
2022-09-11T06:38:05.988Z,8.69
2022-09-11T06:39:08.391Z,8.90
2022-09-11T06:40:13.302Z,9.65
2022-09-11T06:41:16.731Z,9.65
2022-09-11T06:42:19.231Z,8.70
2022-09-11T06:43:21.133Z,8.50
2022-09-11T06:44:23.758Z,8.04
2022-09-11T06:45:31.129Z,8.01
2022-09-11T06:46:32.767Z,8.78
2022-09-11T06:47:35.180Z,8.15
2022-09-11T06:48:37.778Z,7.87
2022-09-11T06:49:40.446Z,7.78
2022-09-11T06:51:07.991Z,8.52
2022-09-11T06:52:09.639Z,9.05
2022-09-11T06:53:14.224Z,8.44
2022-09-11T06:54:22.729Z,8.88
2022-09-11T06:55:24.561Z,8.67
2022-09-11T06:56:34.734Z,8.90
2022-09-11T06:57:41.228Z,8.36
2022-09-11T06:58:46.006Z,8.55
2022-09-11T06:59:47.794Z,8.62
2022-09-11T07:00:50.333Z,9.22
2022-09-11T07:01:52.812Z,9.52
2022-09-11T07:02:56.888Z,9.48
2022-09-11T07:03:59.501Z,8.35
2022-09-11T07:05:01.232Z,8.65
2022-09-11T07:06:04.048Z,8.93
2022-09-11T07:07:05.722Z,9.60
2022-09-11T07:08:07.702Z,9.63
2022-09-11T07:09:11.988Z,9.27
2022-09-11T07:10:25.612Z,8.62
2022-09-11T07:11:32.770Z,8.64
2022-09-11T07:12:34.445Z,8.94
2022-09-11T07:13:38.095Z,8.40
2022-09-11T07:14:41.311Z,8.74
2022-09-11T07:15:50.294Z,8.65
2022-09-11T07:16:55.298Z,8.85
2022-09-11T07:17:57.136Z,9.03
2022-09-11T07:18:59.286Z,9.18
2022-09-11T07:20:02.055Z,8.38
2022-09-11T07:21:08.918Z,8.65
2022-09-11T07:22:10.530Z,8.50
2022-09-11T07:23:12.171Z,8.62
2022-09-11T07:24:13.785Z,9.45
2022-09-11T07:25:18.380Z,10.01
2022-09-11T07:26:24.126Z,9.50
2022-09-11T07:27:28.689Z,9.39
2022-09-11T07:28:30.959Z,8.89
2022-09-11T07:29:33.920Z,8.79
2022-09-11T07:30:35.997Z,8.47
2022-09-11T07:31:38.840Z,8.35
2022-09-11T07:32:41.199Z,8.87
2022-09-11T07:33:46.052Z,8.32
2022-09-11T07:34:48.336Z,8.47
2022-09-11T07:35:49.935Z,8.79
2022-09-11T07:36:51.887Z,8.29
2022-09-11T07:37:53.850Z,7.98
2022-09-11T07:39:00.262Z,7.59
2022-09-11T07:40:09.398Z,9.08
2022-09-11T07:41:11.243Z,8.53
2022-09-11T07:42:13.027Z,8.70
2022-09-11T07:43:15.568Z,7.55
2022-09-11T07:44:18.561Z,7.74
2022-09-11T07:45:22.878Z,7.67
2022-09-11T07:46:25.902Z,7.83
2022-09-11T07:47:28.242Z,7.92
2022-09-11T07:48:30.581Z,8.48
2022-09-11T07:49:32.217Z,8.37
2022-09-11T07:50:33.860Z,8.04
2022-09-11T07:51:37.849Z,7.75
2022-09-11T07:52:42.227Z,7.78
2022-09-11T07:53:56.391Z,7.65
2022-09-11T07:55:00.119Z,8.10
2022-09-11T07:56:07.839Z,8.37
2022-09-11T07:57:09.518Z,7.91
2022-09-11T07:58:11.495Z,7.20
2022-09-11T07:59:13.354Z,7.30
2022-09-11T08:00:18.642Z,7.14
2022-09-11T08:01:29.821Z,7.38
2022-09-11T08:02:32.180Z,7.71
2022-09-11T08:03:35.637Z,7.78
2022-09-11T08:04:38.136Z,7.86
2022-09-11T08:05:40.914Z,8.21
2022-09-11T08:06:46.396Z,8.29
2022-09-11T08:07:55.688Z,7.83
2022-09-11T08:09:01.710Z,7.75
2022-09-11T08:10:26.084Z,7.71
2022-09-11T08:11:29.408Z,7.76
2022-09-11T08:12:32.260Z,7.97
2022-09-11T08:13:35.141Z,8.26
2022-09-11T08:14:36.978Z,9.41
2022-09-11T08:15:48.080Z,9.62
2022-09-11T08:16:50.239Z,16.92
2022-09-11T08:17:52.032Z,16.88
2022-09-11T08:18:54.791Z,13.25
2022-09-11T08:19:57.845Z,11.13
2022-09-11T08:21:07.623Z,11.13
2022-09-11T08:22:11.301Z,9.88
2022-09-11T08:23:18.629Z,8.82
2022-09-11T08:24:21.381Z,8.44
2022-09-11T08:25:24.446Z,8.89
2022-09-11T08:26:29.946Z,8.50
2022-09-11T08:27:32.690Z,8.21
2022-09-11T08:28:37.018Z,8.11
2022-09-11T08:29:39.202Z,8.94
2022-09-11T08:30:40.962Z,8.12
2022-09-11T08:31:43.919Z,7.63
2022-09-11T08:32:46.589Z,8.79
2022-09-11T08:33:49.341Z,8.26
2022-09-11T08:34:52.090Z,7.93
2022-09-11T08:35:57.833Z,7.93
2022-09-11T08:36:59.774Z,7.53
2022-09-11T08:38:03.251Z,7.53
2022-09-11T08:39:05.365Z,8.48
2022-09-11T08:40:11.721Z,8.78
2022-09-11T08:41:41.241Z,7.60
2022-09-11T08:42:47.272Z,9.82
2022-09-11T08:43:58.970Z,11.33
2022-09-11T08:45:04.654Z,12.38
2022-09-11T08:46:13.372Z,10.09
2022-09-11T08:47:20.166Z,9.59
2022-09-11T08:48:33.246Z,9.21
2022-09-11T08:49:46.164Z,8.95
2022-09-11T08:50:49.470Z,7.85
2022-09-11T08:51:56.284Z,8.45
2022-09-11T08:53:02.652Z,8.59
2022-09-11T08:54:06.743Z,9.04
2022-09-11T08:55:17.235Z,8.57
2022-09-11T08:56:22.672Z,8.68
2022-09-11T08:57:33.905Z,8.81
2022-09-11T08:59:04.369Z,8.30
2022-09-11T09:00:27.557Z,8.63
2022-09-11T09:01:40.104Z,8.71
2022-09-11T09:03:21.189Z,7.50
2022-09-11T09:04:45.449Z,8.33
2022-09-11T09:06:25.417Z,7.93
2022-09-11T09:07:28.264Z,7.77
2022-09-11T09:08:55.422Z,7.84
2022-09-11T09:10:21.895Z,8.19
2022-09-11T09:11:37.315Z,8.45
2022-09-11T09:13:02.510Z,7.55
2022-09-11T09:14:41.406Z,7.89
2022-09-11T09:15:55.267Z,7.77
2022-09-11T09:17:03.494Z,9.30
2022-09-11T09:18:26.729Z,9.28
2022-09-11T09:19:38.492Z,8.99
2022-09-11T09:20:51.790Z,8.16
2022-09-11T09:22:18.238Z,8.51
2022-09-11T09:23:27.166Z,8.68
2022-09-11T09:24:38.029Z,9.16
2022-09-11T09:25:42.687Z,9.42
2022-09-11T09:26:50.121Z,9.22
2022-09-11T09:28:18.131Z,9.01
2022-09-11T09:29:25.433Z,8.54
2022-09-11T09:30:46.579Z,8.11
2022-09-11T09:31:57.577Z,8.34
2022-09-11T09:33:14.125Z,8.74
2022-09-11T09:34:19.760Z,9.53
2022-09-11T09:35:28.722Z,8.72
2022-09-11T09:36:39.300Z,9.29
2022-09-11T09:37:41.808Z,8.12
2022-09-11T09:38:44.378Z,8.56
2022-09-11T09:39:46.966Z,8.17
2022-09-11T09:41:10.891Z,8.38
2022-09-11T09:42:40.529Z,8.39
2022-09-11T09:43:53.118Z,8.89
2022-09-11T09:45:32.528Z,7.92
2022-09-11T09:46:50.189Z,9.32
2022-09-11T09:47:53.430Z,9.16
2022-09-11T09:48:56.053Z,8.06
2022-09-11T09:49:58.471Z,8.55
2022-09-11T09:51:03.335Z,8.55
2022-09-11T09:52:27.068Z,8.14
2022-09-11T09:53:49.944Z,8.19
2022-09-11T09:55:01.641Z,8.02
2022-09-11T09:56:06.144Z,7.63
2022-09-11T09:57:11.627Z,8.45
2022-09-11T09:58:14.698Z,8.22
2022-09-11T09:59:32.922Z,8.85
2022-09-11T10:00:38.178Z,8.17
2022-09-11T10:01:40.035Z,8.85
2022-09-11T10:02:58.570Z,8.80
2022-09-11T10:04:13.818Z,8.39
2022-09-11T10:05:18.070Z,9.36
2022-09-11T10:06:22.023Z,9.69
2022-09-11T10:07:24.395Z,8.76
2022-09-11T10:08:33.769Z,8.41
2022-09-11T10:09:35.714Z,8.18
2022-09-11T10:10:40.600Z,7.79
2022-09-11T10:11:43.279Z,7.86
2022-09-11T10:12:45.705Z,8.70
2022-09-11T10:13:55.656Z,8.49
2022-09-11T10:15:03.222Z,8.51
2022-09-11T10:16:21.057Z,8.65
2022-09-11T10:17:31.129Z,7.96
2022-09-11T10:18:37.513Z,8.34
2022-09-11T10:19:43.219Z,9.65
2022-09-11T10:20:44.831Z,8.67
2022-09-11T10:21:46.473Z,9.15
2022-09-11T10:22:49.550Z,9.53
2022-09-11T10:23:55.775Z,9.26
2022-09-11T10:25:03.722Z,9.19
2022-09-11T10:26:05.413Z,8.52
2022-09-11T10:27:12.964Z,8.34
2022-09-11T10:28:22.969Z,8.77
2022-09-11T10:29:29.940Z,8.71
2022-09-11T10:30:53.398Z,8.26
2022-09-11T10:32:02.468Z,8.94
2022-09-11T10:33:15.693Z,9.33
2022-09-11T10:34:20.511Z,9.00
2022-09-11T10:35:27.861Z,10.02
2022-09-11T10:36:31.120Z,9.56
2022-09-11T10:37:34.229Z,9.49
2022-09-11T10:38:47.165Z,9.78
2022-09-11T10:39:50.197Z,8.39
2022-09-11T10:41:22.244Z,8.42
2022-09-11T10:42:28.802Z,8.43
2022-09-11T10:43:42.284Z,7.88
2022-09-11T10:44:47.656Z,8.61
2022-09-11T10:46:03.867Z,8.74
2022-09-11T10:47:27.549Z,8.72
2022-09-11T10:48:29.363Z,8.31
2022-09-11T10:49:31.134Z,8.25
2022-09-11T10:50:34.301Z,7.87
2022-09-11T10:51:43.112Z,8.05
2022-09-11T10:52:53.629Z,8.65
2022-09-11T10:54:21.773Z,8.17
2022-09-11T10:55:29.405Z,8.88
2022-09-11T10:56:40.057Z,9.37
2022-09-11T10:57:47.486Z,9.17
2022-09-11T10:58:58.184Z,8.97
2022-09-11T11:00:26.458Z,8.67
2022-09-11T11:01:28.236Z,8.54
2022-09-11T11:02:34.205Z,8.44
2022-09-11T11:03:36.382Z,9.15
2022-09-11T11:04:38.073Z,8.79
2022-09-11T11:06:09.989Z,9.64
2022-09-11T11:07:58.136Z,15.48
2022-09-11T11:09:30.974Z,39.21
2022-09-11T11:10:39.184Z,21.65
2022-09-11T11:11:52.628Z,13.24
2022-09-11T11:13:18.191Z,14.84
2022-09-11T11:14:41.880Z,14.04
2022-09-11T11:15:58.510Z,12.49
2022-09-11T11:17:08.304Z,13.22
2022-09-11T11:18:31.522Z,8.86
2022-09-11T11:19:47.153Z,8.71
2022-09-11T11:21:03.717Z,7.75
2022-09-11T11:22:39.747Z,7.70
2022-09-11T11:24:09.031Z,7.66
2022-09-11T11:25:54.640Z,7.78
2022-09-11T11:27:27.663Z,7.18
2022-09-11T11:28:44.529Z,7.91
2022-09-11T11:30:20.801Z,8.18
2022-09-11T11:31:51.748Z,8.01
2022-09-11T11:33:08.318Z,7.85
2022-09-11T11:34:37.092Z,7.84
2022-09-11T11:35:47.009Z,7.84
2022-09-11T11:37:01.569Z,7.41
2022-09-11T11:38:20.595Z,7.12
2022-09-11T11:39:39.484Z,7.51
2022-09-11T11:40:53.369Z,7.89
2022-09-11T11:41:54.874Z,7.54
2022-09-11T11:43:05.351Z,7.63
2022-09-11T11:44:17.309Z,7.13
2022-09-11T11:45:21.526Z,7.37
2022-09-11T11:46:43.428Z,7.88
2022-09-11T11:47:48.773Z,7.32
2022-09-11T11:48:59.320Z,7.97
2022-09-11T11:50:29.849Z,8.07
2022-09-11T11:52:00.621Z,7.23
2022-09-11T11:53:15.101Z,8.37
2022-09-11T11:54:52.315Z,7.11
2022-09-11T11:56:03.812Z,7.95
2022-09-11T11:57:22.265Z,7.60
2022-09-11T11:58:40.968Z,7.91
2022-09-11T11:59:58.393Z,7.31
2022-09-11T12:01:05.097Z,8.12
2022-09-11T12:02:09.757Z,8.00
2022-09-11T12:03:18.381Z,8.04
2022-09-11T12:04:44.793Z,7.77
2022-09-11T12:05:46.431Z,8.43
2022-09-11T12:06:48.360Z,7.91
2022-09-11T12:07:51.315Z,13.79
2022-09-11T12:08:53.279Z,12.23
2022-09-11T12:09:58.753Z,9.41
2022-09-11T12:11:07.874Z,8.59
2022-09-11T12:12:09.946Z,7.68
2022-09-11T12:13:15.898Z,7.03
2022-09-11T12:14:27.907Z,7.29
2022-09-11T12:15:34.270Z,9.72
2022-09-11T12:16:36.556Z,7.88
2022-09-11T12:17:40.168Z,7.24
2022-09-11T12:19:14.182Z,8.22
2022-09-11T12:20:43.226Z,7.86
2022-09-11T12:21:53.824Z,7.59
2022-09-11T12:22:55.969Z,7.38
2022-09-11T12:23:57.470Z,8.03
2022-09-11T12:24:59.424Z,8.03
2022-09-11T12:26:08.578Z,8.61
2022-09-11T12:27:35.507Z,7.54
2022-09-11T12:28:37.911Z,8.23
2022-09-11T12:29:54.760Z,8.40
2022-09-11T12:31:07.683Z,8.65
2022-09-11T12:32:29.031Z,7.52
2022-09-11T12:33:48.476Z,6.50
2022-09-11T12:34:50.005Z,6.90
2022-09-11T12:35:53.916Z,6.67
2022-09-11T12:37:12.516Z,7.50
2022-09-11T12:38:40.698Z,7.19
2022-09-11T12:39:54.063Z,6.60
2022-09-11T12:41:01.986Z,6.57
2022-09-11T12:42:25.345Z,6.48
2022-09-11T12:43:30.570Z,7.09
2022-09-11T12:44:52.224Z,7.20
2022-09-11T12:45:54.699Z,7.20
2022-09-11T12:46:56.277Z,6.75
2022-09-11T12:48:15.504Z,6.82
2022-09-11T12:49:23.143Z,6.62
2022-09-11T12:50:28.774Z,6.85
2022-09-11T12:51:38.175Z,6.49
2022-09-11T12:52:51.023Z,6.76
2022-09-11T12:54:00.840Z,6.53
2022-09-11T12:55:26.761Z,6.38
2022-09-11T12:56:36.258Z,6.30
2022-09-11T12:57:38.717Z,6.97
2022-09-11T12:58:45.014Z,7.08
2022-09-11T12:59:56.274Z,6.71
2022-09-11T13:01:22.953Z,7.28
2022-09-11T13:02:39.448Z,7.90
2022-09-11T13:04:09.094Z,8.67
2022-09-11T13:05:34.475Z,7.18
2022-09-11T13:07:04.065Z,7.09
2022-09-11T13:08:22.241Z,6.51
2022-09-11T13:09:36.120Z,6.17
2022-09-11T13:10:39.258Z,6.66
2022-09-11T13:11:49.909Z,6.27
2022-09-11T13:13:44.018Z,7.69
2022-09-11T13:14:51.667Z,6.85
2022-09-11T13:15:57.257Z,7.15
2022-09-11T13:17:01.608Z,6.89
2022-09-11T13:18:24.002Z,7.10
2022-09-11T13:19:37.446Z,6.85
2022-09-11T13:20:40.563Z,6.51
2022-09-11T13:21:42.786Z,6.15
2022-09-11T13:22:47.574Z,5.97
2022-09-11T13:23:50.992Z,6.17
2022-09-11T13:25:14.465Z,5.93
2022-09-11T13:26:26.362Z,6.92
2022-09-11T13:27:28.351Z,6.32
2022-09-11T13:28:31.709Z,6.08
2022-09-11T13:29:37.406Z,5.70
2022-09-11T13:31:02.093Z,6.36
2022-09-11T13:32:11.464Z,6.42
2022-09-11T13:33:21.690Z,5.69
2022-09-11T13:34:27.767Z,7.03
2022-09-11T13:35:30.063Z,6.19
2022-09-11T13:36:35.968Z,6.06
2022-09-11T13:37:45.445Z,5.85
2022-09-11T13:38:54.446Z,5.59
2022-09-11T13:39:56.248Z,6.64
2022-09-11T13:41:18.198Z,6.01
2022-09-11T13:42:23.130Z,5.60
2022-09-11T13:43:32.100Z,5.36
2022-09-11T13:44:47.026Z,5.42
2022-09-11T13:45:48.877Z,5.68
2022-09-11T13:46:52.155Z,5.53
2022-09-11T13:47:55.248Z,5.71
2022-09-11T13:49:25.069Z,6.05
2022-09-11T13:50:27.549Z,5.99
2022-09-11T13:51:31.267Z,5.93
2022-09-11T13:52:35.628Z,5.41
2022-09-11T13:53:37.549Z,5.17
2022-09-11T13:54:59.274Z,5.19
2022-09-11T13:56:00.974Z,5.26
2022-09-11T13:57:03.031Z,5.20
2022-09-11T13:58:23.247Z,5.17
2022-09-11T13:59:44.648Z,5.18
2022-09-11T14:00:50.459Z,5.77
2022-09-11T14:01:56.682Z,5.47
2022-09-11T14:03:00.046Z,5.22
2022-09-11T14:04:04.435Z,5.01
2022-09-11T14:05:28.375Z,5.31
2022-09-11T14:06:30.942Z,5.58
2022-09-11T14:07:41.272Z,5.30
2022-09-11T14:08:50.273Z,6.60
2022-09-11T14:10:04.247Z,6.11
2022-09-11T14:11:26.177Z,5.81
2022-09-11T14:12:29.347Z,5.83
2022-09-11T14:13:44.642Z,5.46
2022-09-11T14:14:53.090Z,5.24
2022-09-11T14:16:07.315Z,5.00
2022-09-11T14:17:11.305Z,5.06
2022-09-11T14:18:40.355Z,4.77
2022-09-11T14:19:45.871Z,4.66
2022-09-11T14:20:47.850Z,5.11
2022-09-11T14:21:51.562Z,4.97
2022-09-11T14:22:58.852Z,4.84
2022-09-11T14:24:00.815Z,4.86
2022-09-11T14:25:19.611Z,5.23
2022-09-11T14:26:32.395Z,6.54
2022-09-11T14:27:38.028Z,4.92
2022-09-11T14:28:41.045Z,4.57
2022-09-11T14:29:53.333Z,4.46
2022-09-11T14:31:13.845Z,4.89
2022-09-11T14:32:36.892Z,4.85
2022-09-11T14:33:38.886Z,4.70
2022-09-11T14:34:40.471Z,5.02
2022-09-11T14:35:46.349Z,4.57
2022-09-11T14:37:12.244Z,4.47
2022-09-11T14:38:18.043Z,5.14
2022-09-11T14:39:29.504Z,4.81
2022-09-11T14:40:31.190Z,4.54
2022-09-11T14:41:32.890Z,4.89
2022-09-11T14:42:36.833Z,4.92
2022-09-11T14:43:38.868Z,5.57
2022-09-11T14:44:42.163Z,5.03
2022-09-11T14:45:43.778Z,5.20
2022-09-11T14:46:45.536Z,4.55
2022-09-11T14:47:47.213Z,4.84
2022-09-11T14:48:49.166Z,4.51
2022-09-11T14:49:55.908Z,4.68
2022-09-11T14:50:58.428Z,4.84
2022-09-11T14:52:01.013Z,4.90
2022-09-11T14:53:03.161Z,4.90
2022-09-11T14:54:06.616Z,5.22
2022-09-11T14:55:14.487Z,4.66
2022-09-11T14:56:16.141Z,4.81
2022-09-11T14:57:23.714Z,5.06
2022-09-11T14:58:27.729Z,4.81
2022-09-11T14:59:29.449Z,4.88
2022-09-11T15:00:31.849Z,5.11
2022-09-11T15:01:33.656Z,5.37
2022-09-11T15:02:35.313Z,5.15